Time;durP1;ratioP1;P1;durP2;ratioP2;P2;SDS_P1;SDS_P2;PMS_P1;PMS_P2;Temp;Humidity;BMP_temperature;BMP_pressure;BME280_temperature;BME280_humidity;BME280_pressure;Samples;Min_cycle;Max_cycle;Signal;HPM_P1;HPM_P2
2024/02/26 00:00:30;;;;;;;;;;;10.90;88.60;;;;;;5025023;28;82179;-61
2024/02/26 00:02:56;;;;;;;;;;;10.90;88.60;;;;;;5022447;28;81460;-62
2024/02/26 00:05:21;;;;;;;;;;;10.90;88.50;;;;;;5017764;28;82339;-61
2024/02/26 00:07:48;;;;;;;;;;;10.90;88.70;;;;;;5023555;28;82216;-61
2024/02/26 00:10:13;;;;;;;;;;;10.90;88.60;;;;;;5018365;28;85459;-61
2024/02/26 00:12:39;;;;;;;;;;;10.90;88.50;;;;;;5017331;28;81908;-62
2024/02/26 00:15:05;;;;;;;;;;;10.80;88.60;;;;;;5019797;28;81951;-61
2024/02/26 00:17:31;;;;;;;;;;;10.80;88.50;;;;;;5017505;28;82340;-62
2024/02/26 00:19:56;;;;;;;;;;;10.80;88.50;;;;;;5017313;28;81976;-62
2024/02/26 00:22:22;;;;;;;;;;;10.80;88.60;;;;;;5021143;28;81955;-62
2024/02/26 00:24:48;;;;;;;;;;;10.80;88.60;;;;;;5021207;28;82860;-63
2024/02/26 00:27:13;;;;;;;;;;;10.80;88.70;;;;;;5021931;28;81214;-62
2024/02/26 00:29:39;;;;;;;;;;;10.80;88.60;;;;;;5023220;28;82179;-62
2024/02/26 00:32:04;;;;;;;;;;;10.80;88.60;;;;;;5018983;28;82079;-62
2024/02/26 00:34:30;;;;;;;;;;;10.80;88.60;;;;;;5017155;28;82823;-62
2024/02/26 00:36:56;;;;;;;;;;;10.80;88.60;;;;;;5021128;28;82935;-62
2024/02/26 00:39:21;;;;;;;;;;;10.70;88.60;;;;;;5017836;28;82084;-62
2024/02/26 00:41:47;;;;;;;;;;;10.80;88.60;;;;;;5015570;28;81886;-62
2024/02/26 00:44:13;;;;;;;;;;;10.70;88.60;;;;;;5024110;28;82545;-57
2024/02/26 00:46:38;;;;;;;;;;;10.70;88.60;;;;;;5019327;28;81859;-62
2024/02/26 00:49:04;;;;;;;;;;;10.70;88.60;;;;;;5017162;28;81986;-61
2024/02/26 00:51:29;;;;;;;;;;;10.70;88.60;;;;;;5022464;28;81359;-60
2024/02/26 00:53:55;;;;;;;;;;;10.70;88.60;;;;;;5020351;28;82641;-60
2024/02/26 00:56:21;;;;;;;;;;;10.70;88.60;;;;;;5018888;28;82260;-60
2024/02/26 00:58:47;;;;;;;;;;;10.70;88.50;;;;;;5016506;28;82921;-59
2024/02/26 01:01:12;;;;;;;;;;;10.70;88.60;;;;;;5019776;28;82917;-60
2024/02/26 01:03:38;;;;;;;;;;;10.70;88.70;;;;;;5018384;28;83032;-60
2024/02/26 01:06:03;;;;;;;;;;;10.70;88.60;;;;;;5025825;28;81919;-60
2024/02/26 01:08:29;;;;;;;;;;;10.60;88.70;;;;;;5017723;28;82575;-60
2024/02/26 01:10:54;;;;;;;;;;;10.60;88.70;;;;;;5017077;28;82185;-60
2024/02/26 01:13:20;;;;;;;;;;;10.60;88.70;;;;;;5019379;28;82048;-60
2024/02/26 01:15:45;;;;;;;;;;;10.60;88.70;;;;;;5019514;28;81342;-60
2024/02/26 01:18:12;;;;;;;;;;;10.60;88.60;;;;;;5024511;28;81990;-58
2024/02/26 01:20:37;;;;;;;;;;;10.60;88.70;;;;;;5020118;28;82345;-59
2024/02/26 01:23:03;;;;;;;;;;;10.60;88.50;;;;;;5017568;28;83532;-60
2024/02/26 01:25:28;;;;;;;;;;;10.60;88.50;;;;;;5017361;28;82003;-60
2024/02/26 01:27:54;;;;;;;;;;;10.50;88.60;;;;;;5018823;28;82411;-60
2024/02/26 01:30:20;;;;;;;;;;;10.50;88.70;;;;;;5015060;28;81968;-60
2024/02/26 01:32:45;;;;;;;;;;;10.50;88.70;;;;;;5018676;28;82095;-60
2024/02/26 01:35:11;;;;;;;;;;;10.50;88.60;;;;;;5018598;28;81837;-58
2024/02/26 01:37:38;;;;;;;;;;;10.50;88.70;;;;;;5018884;28;82105;-60
2024/02/26 01:40:04;;;;;;;;;;;10.50;88.70;;;;;;5018679;28;81625;-60
2024/02/26 01:42:30;;;;;;;;;;;10.50;88.70;;;;;;5019282;28;82624;-60
2024/02/26 01:44:57;;;;;;;;;;;10.50;88.70;;;;;;5018026;28;81968;-60
2024/02/26 01:47:22;;;;;;;;;;;10.50;88.80;;;;;;5014105;28;83653;-60
2024/02/26 01:49:48;;;;;;;;;;;10.50;88.70;;;;;;5017016;28;82584;-60
2024/02/26 01:52:14;;;;;;;;;;;10.50;88.80;;;;;;5012394;28;81956;-60
2024/02/26 01:54:40;;;;;;;;;;;10.50;88.80;;;;;;5015806;28;82556;-60
2024/02/26 01:57:06;;;;;;;;;;;10.50;88.70;;;;;;5017934;28;82110;-60
2024/02/26 01:59:32;;;;;;;;;;;10.50;88.80;;;;;;5018919;28;82472;-60
2024/02/26 02:01:59;;;;;;;;;;;10.50;88.80;;;;;;5019396;28;81867;-59
2024/02/26 02:04:24;;;;;;;;;;;10.50;88.70;;;;;;5021411;28;81186;-60
2024/02/26 02:06:50;;;;;;;;;;;10.40;88.70;;;;;;5015769;28;81880;-60
2024/02/26 02:09:16;;;;;;;;;;;10.40;88.90;;;;;;5020410;28;82390;-60
2024/02/26 02:11:41;;;;;;;;;;;10.40;88.90;;;;;;5016317;28;84845;-59
2024/02/26 02:14:07;;;;;;;;;;;10.40;88.80;;;;;;5013047;28;82884;-60
2024/02/26 02:16:32;;;;;;;;;;;10.40;88.90;;;;;;5017997;28;82894;-60
2024/02/26 02:18:58;;;;;;;;;;;10.40;88.90;;;;;;5017921;28;81979;-59
2024/02/26 02:21:24;;;;;;;;;;;10.40;89.00;;;;;;5019245;28;82396;-60
2024/02/26 02:23:49;;;;;;;;;;;10.40;89.00;;;;;;5017216;28;82023;-60
2024/02/26 02:26:15;;;;;;;;;;;10.40;89.00;;;;;;5022795;28;81863;-59
2024/02/26 02:28:41;;;;;;;;;;;10.30;88.80;;;;;;5018905;28;81734;-56
2024/02/26 02:31:07;;;;;;;;;;;10.40;88.80;;;;;;5021452;28;81995;-60
2024/02/26 02:33:33;;;;;;;;;;;10.30;88.90;;;;;;5013062;28;82349;-60
2024/02/26 02:35:59;;;;;;;;;;;10.30;88.90;;;;;;5017488;28;82856;-60
2024/02/26 02:38:25;;;;;;;;;;;10.30;89.00;;;;;;5014044;28;83427;-60
2024/02/26 02:40:54;;;;;;;;;;;10.30;88.80;;;;;;5016738;28;82358;-60
2024/02/26 02:43:19;;;;;;;;;;;10.30;88.90;;;;;;5016107;28;82188;-60
2024/02/26 02:45:45;;;;;;;;;;;10.30;88.90;;;;;;5019797;28;81961;-60
2024/02/26 02:48:11;;;;;;;;;;;10.30;89.00;;;;;;5013734;28;82721;-56
2024/02/26 02:50:37;;;;;;;;;;;10.20;89.10;;;;;;5014763;28;82276;-60
2024/02/26 02:53:02;;;;;;;;;;;10.20;89.70;;;;;;5020114;28;81719;-60
2024/02/26 02:55:28;;;;;;;;;;;10.30;89.10;;;;;;5014829;28;81844;-60
2024/02/26 02:57:53;;;;;;;;;;;10.20;89.10;;;;;;5014770;28;81968;-60
2024/02/26 03:00:19;;;;;;;;;;;10.20;89.00;;;;;;5017170;28;83566;-60
2024/02/26 03:02:46;;;;;;;;;;;10.20;89.10;;;;;;5013324;28;82212;-60
2024/02/26 03:05:11;;;;;;;;;;;10.20;89.10;;;;;;5016406;28;81869;-58
2024/02/26 03:07:37;;;;;;;;;;;10.20;89.20;;;;;;5018952;28;82388;-59
2024/02/26 03:10:03;;;;;;;;;;;10.20;89.10;;;;;;5018238;28;82971;-59
2024/02/26 03:12:30;;;;;;;;;;;10.20;89.20;;;;;;5015987;28;82293;-58
2024/02/26 03:14:55;;;;;;;;;;;10.20;89.20;;;;;;5015563;28;82418;-60
2024/02/26 03:17:24;;;;;;;;;;;10.20;89.10;;;;;;5013511;28;81825;-59
2024/02/26 03:19:53;;;;;;;;;;;10.20;89.10;;;;;;5018207;28;82413;-59
2024/02/26 03:22:18;;;;;;;;;;;10.20;89.20;;;;;;5014573;28;82650;-58
2024/02/26 03:24:44;;;;;;;;;;;10.20;89.10;;;;;;5016291;28;82924;-59
2024/02/26 03:27:10;;;;;;;;;;;10.10;89.20;;;;;;5017550;28;82030;-59
2024/02/26 03:29:36;;;;;;;;;;;10.10;89.10;;;;;;5014275;28;81858;-59
2024/02/26 03:32:02;;;;;;;;;;;10.10;89.30;;;;;;5011489;28;82040;-59
2024/02/26 03:34:28;;;;;;;;;;;10.10;89.20;;;;;;5018678;28;82267;-60
2024/02/26 03:36:54;;;;;;;;;;;10.10;89.30;;;;;;5019072;28;82303;-60
2024/02/26 03:39:19;;;;;;;;;;;10.10;89.30;;;;;;5017281;28;82658;-56
2024/02/26 03:41:45;;;;;;;;;;;10.10;89.30;;;;;;5014801;28;81221;-59
2024/02/26 03:44:10;;;;;;;;;;;10.00;89.20;;;;;;5017739;28;81927;-59
2024/02/26 03:46:36;;;;;;;;;;;10.10;89.30;;;;;;5026952;28;84004;-60
2024/02/26 03:49:01;;;;;;;;;;;10.00;89.20;;;;;;5014978;28;82853;-60
2024/02/26 03:51:31;;;;;;;;;;;10.00;89.30;;;;;;5019247;28;82671;-60
2024/02/26 03:54:00;;;;;;;;;;;10.00;89.30;;;;;;5015421;28;82583;-60
2024/02/26 03:56:26;;;;;;;;;;;10.00;89.40;;;;;;5023056;28;81775;-59
2024/02/26 03:58:51;;;;;;;;;;;10.00;89.30;;;;;;5018414;28;82215;-59
2024/02/26 04:01:17;;;;;;;;;;;10.00;89.40;;;;;;5016615;28;81936;-60
2024/02/26 04:03:43;;;;;;;;;;;10.00;89.40;;;;;;5017943;28;82016;-59
2024/02/26 04:06:10;;;;;;;;;;;10.00;89.30;;;;;;5016529;28;81847;-59
2024/02/26 04:08:36;;;;;;;;;;;10.00;89.30;;;;;;5016901;28;82139;-60
2024/02/26 04:11:06;;;;;;;;;;;10.00;89.40;;;;;;5016128;28;82046;-60
2024/02/26 04:13:32;;;;;;;;;;;10.00;89.40;;;;;;5022255;28;83171;-60
2024/02/26 04:15:58;;;;;;;;;;;9.90;89.30;;;;;;5019009;28;82232;-60
2024/02/26 04:18:23;;;;;;;;;;;9.90;89.30;;;;;;5022347;28;82058;-60
2024/02/26 04:20:51;;;;;;;;;;;9.90;89.40;;;;;;5021750;28;81923;-60
2024/02/26 04:23:16;;;;;;;;;;;9.90;89.60;;;;;;5019264;28;83978;-60
2024/02/26 04:25:42;;;;;;;;;;;9.90;90.00;;;;;;5018381;28;81755;-59
2024/02/26 04:28:07;;;;;;;;;;;9.90;89.50;;;;;;5021503;28;82034;-60
2024/02/26 04:30:33;;;;;;;;;;;9.90;89.50;;;;;;5022715;28;81763;-60
2024/02/26 04:32:59;;;;;;;;;;;9.90;89.40;;;;;;5015747;28;82857;-60
2024/02/26 04:35:24;;;;;;;;;;;9.80;89.40;;;;;;5026656;28;82082;-60
2024/02/26 04:37:50;;;;;;;;;;;9.90;89.50;;;;;;5018089;28;82728;-60
2024/02/26 04:40:15;;;;;;;;;;;9.90;89.60;;;;;;5024754;28;82714;-59
2024/02/26 04:42:41;;;;;;;;;;;9.90;90.00;;;;;;5019457;28;82660;-56
2024/02/26 04:45:08;;;;;;;;;;;9.90;89.50;;;;;;5019355;28;82468;-59
2024/02/26 04:47:33;;;;;;;;;;;9.80;89.50;;;;;;5027296;28;82561;-61
2024/02/26 04:49:59;;;;;;;;;;;9.80;89.50;;;;;;5018371;28;81869;-59
2024/02/26 04:52:25;;;;;;;;;;;9.80;89.50;;;;;;5022324;28;82397;-59
2024/02/26 04:54:51;;;;;;;;;;;9.80;89.50;;;;;;5017908;28;81237;-59
2024/02/26 04:57:18;;;;;;;;;;;9.80;89.40;;;;;;5017794;28;81893;-59
2024/02/26 04:59:44;;;;;;;;;;;9.80;89.30;;;;;;5018768;28;82725;-55
2024/02/26 05:02:10;;;;;;;;;;;9.80;89.30;;;;;;5016589;28;84437;-59
2024/02/26 05:04:36;;;;;;;;;;;9.80;89.30;;;;;;5018965;28;82937;-59
2024/02/26 05:07:01;;;;;;;;;;;9.80;89.40;;;;;;5017689;28;82431;-59
2024/02/26 05:09:27;;;;;;;;;;;9.70;89.30;;;;;;5018058;28;82006;-59
2024/02/26 05:11:52;;;;;;;;;;;9.80;89.40;;;;;;5018702;28;81904;-59
2024/02/26 05:14:18;;;;;;;;;;;9.70;89.40;;;;;;5015903;28;82640;-58
2024/02/26 05:16:43;;;;;;;;;;;9.80;89.40;;;;;;5013872;28;83613;-56
2024/02/26 05:19:09;;;;;;;;;;;9.80;89.50;;;;;;5019041;28;81897;-59
2024/02/26 05:21:34;;;;;;;;;;;9.80;89.40;;;;;;5021639;27;82093;-59
2024/02/26 05:24:00;;;;;;;;;;;9.70;89.40;;;;;;5018618;28;81972;-59
2024/02/26 05:26:26;;;;;;;;;;;9.70;89.50;;;;;;5016389;28;83516;-56
2024/02/26 05:28:52;;;;;;;;;;;9.70;89.50;;;;;;5025066;28;81996;-59
2024/02/26 05:31:18;;;;;;;;;;;9.70;89.50;;;;;;5017249;28;82525;-59
2024/02/26 05:33:44;;;;;;;;;;;9.70;89.60;;;;;;5017628;28;82053;-57
2024/02/26 05:36:09;;;;;;;;;;;9.70;89.60;;;;;;5020021;28;82267;-59
2024/02/26 05:38:35;;;;;;;;;;;9.70;89.60;;;;;;5019854;28;82592;-59
2024/02/26 05:41:01;;;;;;;;;;;9.70;89.70;;;;;;5021743;28;82861;-59
2024/02/26 05:43:27;;;;;;;;;;;9.70;89.60;;;;;;5016579;28;82859;-59
2024/02/26 05:45:53;;;;;;;;;;;9.70;89.60;;;;;;5014548;28;82193;-59
2024/02/26 05:48:19;;;;;;;;;;;9.70;89.60;;;;;;5015616;28;82113;-60
2024/02/26 05:50:45;;;;;;;;;;;9.70;89.60;;;;;;5021519;28;83364;-58
2024/02/26 05:53:10;;;;;;;;;;;9.70;89.60;;;;;;5013864;28;82218;-60
2024/02/26 05:55:37;;;;;;;;;;;9.70;89.60;;;;;;5021769;28;82948;-59
2024/02/26 05:58:03;;;;;;;;;;;9.70;89.60;;;;;;5015743;28;82552;-58
2024/02/26 06:00:28;;;;;;;;;;;9.60;89.60;;;;;;5018766;28;82189;-56
2024/02/26 06:02:54;;;;;;;;;;;9.60;89.60;;;;;;5015338;28;81980;-60
2024/02/26 06:05:19;;;;;;;;;;;9.60;89.60;;;;;;5017438;28;82979;-59
2024/02/26 06:07:45;;;;;;;;;;;9.60;89.80;;;;;;5017712;28;82125;-59
2024/02/26 06:10:10;;;;;;;;;;;9.60;89.70;;;;;;5017833;28;83035;-59
2024/02/26 06:12:36;;;;;;;;;;;9.60;89.70;;;;;;5014542;28;81990;-59
2024/02/26 06:15:02;;;;;;;;;;;9.60;89.60;;;;;;5016574;28;82836;-59
2024/02/26 06:17:28;;;;;;;;;;;9.60;89.70;;;;;;5011675;28;82631;-60
2024/02/26 06:19:53;;;;;;;;;;;9.60;89.70;;;;;;5013692;28;81955;-59
2024/02/26 06:22:19;;;;;;;;;;;9.60;89.70;;;;;;5014854;28;81884;-59
2024/02/26 06:24:45;;;;;;;;;;;9.60;89.70;;;;;;5019541;28;81833;-59
2024/02/26 06:27:10;;;;;;;;;;;9.60;89.80;;;;;;5018361;28;81871;-59
2024/02/26 06:29:36;;;;;;;;;;;9.60;89.80;;;;;;5019725;28;83609;-59
2024/02/26 06:32:01;;;;;;;;;;;9.60;89.80;;;;;;5016291;28;81738;-59
2024/02/26 06:34:27;;;;;;;;;;;9.60;89.90;;;;;;5017808;28;81960;-59
2024/02/26 06:36:52;;;;;;;;;;;9.60;89.90;;;;;;5019013;28;82733;-59
2024/02/26 06:39:18;;;;;;;;;;;9.60;90.00;;;;;;5014329;28;83441;-59
2024/02/26 06:41:46;;;;;;;;;;;9.50;89.90;;;;;;5013151;28;83009;-58
2024/02/26 06:44:12;;;;;;;;;;;9.50;89.90;;;;;;5012137;28;82637;-56
2024/02/26 06:46:38;;;;;;;;;;;9.50;90.00;;;;;;5020046;28;81910;-59
2024/02/26 06:49:05;;;;;;;;;;;9.50;90.00;;;;;;5018283;28;82082;-59
2024/02/26 06:51:30;;;;;;;;;;;9.50;89.80;;;;;;5018114;28;81926;-58
2024/02/26 06:53:56;;;;;;;;;;;9.50;90.00;;;;;;5012432;28;82726;-59
2024/02/26 06:56:21;;;;;;;;;;;9.50;89.80;;;;;;5018027;28;83048;-59
2024/02/26 06:58:47;;;;;;;;;;;9.50;89.80;;;;;;5020074;28;82012;-59
2024/02/26 07:01:12;;;;;;;;;;;9.50;89.80;;;;;;5018284;28;81949;-59
2024/02/26 07:03:40;;;;;;;;;;;9.50;89.90;;;;;;5015098;28;84499;-59
2024/02/26 07:06:06;;;;;;;;;;;9.50;89.80;;;;;;5019995;28;82001;-59
2024/02/26 07:08:32;;;;;;;;;;;9.50;89.90;;;;;;5017858;28;82649;-59
2024/02/26 07:10:58;;;;;;;;;;;9.50;90.00;;;;;;5016898;28;82382;-58
2024/02/26 07:13:23;;;;;;;;;;;9.50;89.90;;;;;;5018758;28;82344;-59
2024/02/26 07:15:49;;;;;;;;;;;9.50;89.90;;;;;;5018682;28;82504;-59
2024/02/26 07:18:14;;;;;;;;;;;9.50;89.80;;;;;;5014103;28;81953;-58
2024/02/26 07:20:40;;;;;;;;;;;9.50;89.90;;;;;;5017812;28;82033;-58
2024/02/26 07:23:06;;;;;;;;;;;9.50;90.00;;;;;;5015483;28;82711;-60
2024/02/26 07:25:32;;;;;;;;;;;9.50;90.00;;;;;;5014413;28;82020;-59
2024/02/26 07:27:57;;;;;;;;;;;9.50;90.00;;;;;;5013458;28;82956;-60
2024/02/26 07:30:24;;;;;;;;;;;9.40;90.30;;;;;;5015728;28;81992;-60
2024/02/26 07:32:50;;;;;;;;;;;9.50;90.00;;;;;;5020050;28;81895;-60
2024/02/26 07:35:17;;;;;;;;;;;9.50;90.00;;;;;;5013589;28;83027;-60
2024/02/26 07:37:43;;;;;;;;;;;9.50;90.00;;;;;;5019478;28;82909;-60
2024/02/26 07:40:09;;;;;;;;;;;9.50;90.00;;;;;;5013382;28;82319;-60
2024/02/26 07:42:34;;;;;;;;;;;9.50;90.00;;;;;;5012021;28;82243;-55
2024/02/26 07:45:00;;;;;;;;;;;9.50;90.00;;;;;;5019885;28;81200;-60
2024/02/26 07:47:25;;;;;;;;;;;9.40;90.10;;;;;;5019194;28;81962;-60
2024/02/26 07:49:51;;;;;;;;;;;9.50;90.10;;;;;;5018305;28;83085;-60
2024/02/26 07:52:17;;;;;;;;;;;9.50;90.00;;;;;;5019494;28;83728;-60
2024/02/26 07:54:42;;;;;;;;;;;9.40;90.10;;;;;;5018989;28;82423;-59
2024/02/26 07:57:08;;;;;;;;;;;9.50;90.00;;;;;;5014261;28;81902;-60
2024/02/26 07:59:33;;;;;;;;;;;9.50;90.00;;;;;;5016688;28;82784;-60
2024/02/26 08:02:00;;;;;;;;;;;9.40;90.00;;;;;;5017553;28;81795;-60
2024/02/26 08:04:26;;;;;;;;;;;9.50;90.10;;;;;;5024523;28;82752;-60
2024/02/26 08:06:52;;;;;;;;;;;9.50;90.10;;;;;;5018663;28;83104;-60
2024/02/26 08:09:17;;;;;;;;;;;9.40;90.00;;;;;;5021323;28;81884;-60
2024/02/26 08:11:43;;;;;;;;;;;9.50;90.00;;;;;;5022379;28;81970;-59
2024/02/26 08:14:08;;;;;;;;;;;9.50;90.00;;;;;;5022315;28;82639;-60
2024/02/26 08:16:34;;;;;;;;;;;9.50;90.00;;;;;;5021104;28;83514;-60
2024/02/26 08:19:00;;;;;;;;;;;9.50;90.10;;;;;;5019153;28;82222;-60
2024/02/26 08:21:25;;;;;;;;;;;9.50;90.00;;;;;;5016477;28;82581;-58
2024/02/26 08:23:51;;;;;;;;;;;9.50;90.10;;;;;;5018735;28;82062;-58
2024/02/26 08:26:16;;;;;;;;;;;9.50;90.10;;;;;;5016297;28;83198;-58
2024/02/26 08:28:42;;;;;;;;;;;9.50;90.10;;;;;;5014140;28;82568;-56
2024/02/26 08:31:08;;;;;;;;;;;9.50;90.10;;;;;;5017004;28;81964;-58
2024/02/26 08:33:35;;;;;;;;;;;9.50;90.10;;;;;;5016694;28;81949;-60
2024/02/26 08:36:04;;;;;;;;;;;9.50;90.10;;;;;;5025143;28;85025;-59
2024/02/26 08:38:29;;;;;;;;;;;9.50;90.10;;;;;;5017761;28;82657;-60
2024/02/26 08:40:55;;;;;;;;;;;9.50;90.10;;;;;;5018415;28;83309;-60
2024/02/26 08:43:20;;;;;;;;;;;9.60;90.10;;;;;;5020559;28;82010;-60
2024/02/26 08:45:46;;;;;;;;;;;9.50;90.10;;;;;;5015892;28;84590;-60
2024/02/26 08:48:11;;;;;;;;;;;9.60;90.10;;;;;;5018892;28;83385;-57
2024/02/26 08:50:37;;;;;;;;;;;9.60;90.10;;;;;;5025779;28;81971;-60
2024/02/26 08:53:04;;;;;;;;;;;9.60;90.00;;;;;;5017154;28;82105;-60
2024/02/26 08:55:29;;;;;;;;;;;9.50;90.00;;;;;;5014968;28;82398;-60
2024/02/26 08:57:55;;;;;;;;;;;9.50;90.00;;;;;;5018340;28;81258;-60
2024/02/26 09:00:21;;;;;;;;;;;9.60;90.00;;;;;;5022563;28;82605;-60
2024/02/26 09:02:49;;;;;;;;;;;9.60;90.00;;;;;;5015187;28;81906;-60
2024/02/26 09:05:14;;;;;;;;;;;9.60;90.00;;;;;;5015667;28;83748;-58
2024/02/26 09:07:40;;;;;;;;;;;9.60;89.90;;;;;;5022587;28;81905;-60
2024/02/26 09:10:08;;;;;;;;;;;9.50;89.70;;;;;;5020512;28;82119;-59
2024/02/26 09:12:33;;;;;;;;;;;9.50;89.80;;;;;;5016822;28;81944;-59
2024/02/26 09:14:59;;;;;;;;;;;9.50;89.80;;;;;;5016501;28;82593;-60
2024/02/26 09:17:25;;;;;;;;;;;9.50;90.00;;;;;;5017053;28;82033;-60
2024/02/26 09:19:50;;;;;;;;;;;9.50;89.80;;;;;;5017705;28;82597;-60
2024/02/26 09:22:16;;;;;;;;;;;9.50;89.80;;;;;;5017807;28;81322;-60
2024/02/26 09:24:41;;;;;;;;;;;9.50;89.70;;;;;;5018862;28;82644;-59
2024/02/26 09:27:07;;;;;;;;;;;9.50;89.80;;;;;;5019604;28;84115;-60
2024/02/26 09:29:32;;;;;;;;;;;9.50;89.70;;;;;;5019793;28;82915;-60
2024/02/26 09:31:58;;;;;;;;;;;9.50;89.70;;;;;;5017330;28;82665;-60
2024/02/26 09:34:24;;;;;;;;;;;9.60;90.00;;;;;;5016424;28;82508;-60
2024/02/26 09:36:49;;;;;;;;;;;9.50;90.00;;;;;;5015005;28;82697;-60
2024/02/26 09:39:20;;;;;;;;;;;9.50;90.00;;;;;;5021437;28;82738;-59
2024/02/26 09:41:45;;;;;;;;;;;9.60;90.00;;;;;;5022517;28;82698;-59
2024/02/26 09:44:13;;;;;;;;;;;9.50;90.00;;;;;;5015344;28;83488;-60
2024/02/26 09:46:38;;;;;;;;;;;9.60;90.10;;;;;;5018014;28;81803;-60
2024/02/26 09:49:04;;;;;;;;;;;9.50;90.10;;;;;;5020703;28;82617;-60
2024/02/26 09:51:31;;;;;;;;;;;9.60;90.10;;;;;;5015912;28;82405;-60
2024/02/26 09:54:00;;;;;;;;;;;9.60;90.10;;;;;;5013202;28;83174;-60
2024/02/26 09:56:26;;;;;;;;;;;9.60;90.10;;;;;;5017462;28;81912;-60
2024/02/26 09:58:54;;;;;;;;;;;9.60;90.10;;;;;;5016784;28;82182;-60
2024/02/26 10:01:20;;;;;;;;;;;9.60;90.10;;;;;;5015801;28;84722;-60
2024/02/26 10:03:51;;;;;;;;;;;9.60;90.20;;;;;;5011086;28;82486;-60
2024/02/26 10:06:17;;;;;;;;;;;9.60;90.20;;;;;;5022418;28;82716;-60
2024/02/26 10:08:44;;;;;;;;;;;9.60;90.20;;;;;;5015859;28;81931;-59
2024/02/26 10:11:10;;;;;;;;;;;9.60;90.30;;;;;;5017499;28;81997;-60
2024/02/26 10:13:36;;;;;;;;;;;9.60;90.30;;;;;;5012795;28;82533;-60
2024/02/26 10:16:03;;;;;;;;;;;9.60;90.30;;;;;;5025986;28;82797;-60
2024/02/26 10:18:48;;;;;;;;;;;9.60;90.30;;;;;;5017596;28;83928;-60
2024/02/26 10:21:15;;;;;;;;;;;9.60;90.20;;;;;;5015182;28;82528;-60
2024/02/26 10:23:41;;;;;;;;;;;9.60;90.20;;;;;;5017375;28;81898;-60
2024/02/26 10:26:08;;;;;;;;;;;9.60;90.30;;;;;;5019655;28;83251;-60
2024/02/26 10:28:34;;;;;;;;;;;9.60;90.30;;;;;;5018546;28;82014;-60
2024/02/26 10:31:00;;;;;;;;;;;9.60;90.30;;;;;;5015263;28;83598;-58
2024/02/26 10:33:25;;;;;;;;;;;9.60;90.40;;;;;;5013755;28;82473;-60
2024/02/26 10:35:53;;;;;;;;;;;9.60;90.30;;;;;;5014060;28;81207;-60
2024/02/26 10:38:20;;;;;;;;;;;9.60;90.30;;;;;;5017795;28;82417;-60
2024/02/26 10:40:46;;;;;;;;;;;9.60;90.30;;;;;;5016586;28;82025;-58
2024/02/26 10:43:14;;;;;;;;;;;9.60;90.50;;;;;;5015572;28;82885;-60
2024/02/26 10:45:42;;;;;;;;;;;9.60;90.40;;;;;;5020819;28;83093;-60
2024/02/26 10:48:14;;;;;;;;;;;9.60;90.40;;;;;;5019829;28;84033;-60
2024/02/26 10:50:41;;;;;;;;;;;9.60;90.40;;;;;;5017840;28;82463;-60
2024/02/26 10:53:16;;;;;;;;;;;9.60;90.50;;;;;;5014407;28;83583;-60
2024/02/26 10:55:44;;;;;;;;;;;9.60;90.50;;;;;;5012656;28;82150;-60
2024/02/26 10:58:10;;;;;;;;;;;9.70;90.50;;;;;;5019586;28;82401;-59
2024/02/26 11:00:38;;;;;;;;;;;9.70;90.50;;;;;;5016197;28;81853;-60
2024/02/26 11:03:05;;;;;;;;;;;9.70;90.60;;;;;;5016361;28;83001;-60
2024/02/26 11:05:33;;;;;;;;;;;9.70;90.60;;;;;;5015288;28;81889;-60
2024/02/26 11:08:00;;;;;;;;;;;9.60;90.60;;;;;;5017408;28;83332;-60
2024/02/26 11:10:26;;;;;;;;;;;9.70;90.60;;;;;;5017657;28;82757;-60
2024/02/26 11:12:53;;;;;;;;;;;9.70;90.70;;;;;;5010195;28;82798;-60
2024/02/26 11:15:19;;;;;;;;;;;9.70;90.70;;;;;;5018223;28;82627;-60
2024/02/26 11:17:46;;;;;;;;;;;9.70;90.70;;;;;;5019506;28;82565;-59
2024/02/26 11:20:13;;;;;;;;;;;9.70;90.70;;;;;;5017004;28;82477;-60
2024/02/26 11:22:39;;;;;;;;;;;9.70;90.70;;;;;;5018000;28;81977;-60
2024/02/26 11:25:04;;;;;;;;;;;9.70;90.70;;;;;;5019164;28;82267;-60
2024/02/26 11:27:32;;;;;;;;;;;9.70;90.70;;;;;;5017275;28;81964;-59
2024/02/26 11:29:59;;;;;;;;;;;9.70;90.70;;;;;;5019988;28;83738;-60
2024/02/26 11:32:26;;;;;;;;;;;9.70;90.60;;;;;;5022298;28;84826;-60
2024/02/26 11:34:52;;;;;;;;;;;9.70;90.70;;;;;;5020625;28;82022;-60
2024/02/26 11:37:17;;;;;;;;;;;9.70;90.70;;;;;;5017875;28;82988;-60
2024/02/26 11:39:45;;;;;;;;;;;9.70;90.70;;;;;;5015872;28;82791;-59
2024/02/26 11:42:15;;;;;;;;;;;9.70;90.70;;;;;;5019994;28;81875;-60
2024/02/26 11:44:41;;;;;;;;;;;9.70;90.70;;;;;;5022265;28;81905;-60
2024/02/26 11:47:17;;;;;;;;;;;9.70;90.70;;;;;;5019477;28;82572;-60
2024/02/26 11:49:43;;;;;;;;;;;9.70;90.70;;;;;;5020010;28;81192;-60
2024/02/26 11:52:09;;;;;;;;;;;9.70;90.70;;;;;;5020311;28;82637;-60
2024/02/26 11:54:53;;;;;;;;;;;9.80;90.80;;;;;;5018987;28;82616;-60
2024/02/26 11:57:29;;;;;;;;;;;9.80;90.70;;;;;;5013493;28;82950;-60
2024/02/26 11:59:55;;;;;;;;;;;9.70;90.80;;;;;;5020954;28;82551;-60
2024/02/26 12:02:39;;;;;;;;;;;9.70;90.90;;;;;;5019637;28;82001;-57
2024/02/26 12:05:06;;;;;;;;;;;9.70;91.00;;;;;;5024586;28;81857;-59
2024/02/26 12:07:33;;;;;;;;;;;9.80;90.80;;;;;;5020844;28;83006;-60
2024/02/26 12:10:35;;;;;;;;;;;9.80;90.90;;;;;;5015074;28;81965;-60
2024/02/26 12:13:10;;;;;;;;;;;9.80;90.90;;;;;;5019657;28;82498;-60
2024/02/26 12:15:39;;;;;;;;;;;9.80;91.00;;;;;;5017917;28;82037;-60
2024/02/26 12:18:07;;;;;;;;;;;9.80;90.90;;;;;;5016342;28;82611;-60
2024/02/26 12:20:33;;;;;;;;;;;9.80;90.90;;;;;;5023607;28;84994;-60
2024/02/26 12:22:59;;;;;;;;;;;9.80;90.90;;;;;;5018834;28;82937;-60
2024/02/26 12:25:26;;;;;;;;;;;9.80;91.10;;;;;;5017358;28;83779;-60
2024/02/26 12:27:53;;;;;;;;;;;9.80;91.00;;;;;;5018339;28;82121;-60
2024/02/26 12:30:19;;;;;;;;;;;9.80;91.00;;;;;;5017896;28;82699;-60
2024/02/26 12:32:45;;;;;;;;;;;9.80;91.00;;;;;;5017117;28;81973;-59
2024/02/26 12:35:10;;;;;;;;;;;9.80;91.00;;;;;;5021312;28;82450;-60
2024/02/26 12:37:37;;;;;;;;;;;9.80;91.00;;;;;;5018727;28;81830;-60
2024/02/26 12:40:05;;;;;;;;;;;9.80;91.20;;;;;;5016168;28;82203;-60
2024/02/26 12:42:38;;;;;;;;;;;9.80;91.00;;;;;;5018502;28;82214;-60
2024/02/26 12:45:09;;;;;;;;;;;9.80;91.10;;;;;;5022066;28;83650;-60
2024/02/26 12:47:38;;;;;;;;;;;9.80;91.10;;;;;;5013136;28;83448;-60
2024/02/26 12:50:04;;;;;;;;;;;9.80;91.10;;;;;;5019709;28;82793;-59
2024/02/26 12:52:36;;;;;;;;;;;9.90;91.10;;;;;;5019213;28;81964;-60
2024/02/26 12:55:03;;;;;;;;;;;9.80;91.50;;;;;;5016790;28;82634;-60
2024/02/26 12:57:32;;;;;;;;;;;9.80;91.30;;;;;;5021933;28;81963;-60
2024/02/26 12:59:58;;;;;;;;;;;9.90;91.30;;;;;;5018547;28;82475;-60
2024/02/26 13:02:24;;;;;;;;;;;9.90;91.20;;;;;;5021933;28;82010;-60
2024/02/26 13:04:49;;;;;;;;;;;9.90;91.20;;;;;;5020206;28;81836;-60
2024/02/26 13:07:15;;;;;;;;;;;9.90;91.10;;;;;;5016362;28;82309;-60
2024/02/26 13:09:41;;;;;;;;;;;9.90;91.10;;;;;;5020955;28;81974;-60
2024/02/26 13:12:07;;;;;;;;;;;9.90;91.40;;;;;;5018026;28;82816;-60
2024/02/26 13:14:33;;;;;;;;;;;9.90;91.30;;;;;;5015417;28;82435;-60
2024/02/26 13:17:00;;;;;;;;;;;9.90;91.30;;;;;;5016261;28;82342;-60
2024/02/26 13:19:25;;;;;;;;;;;9.90;91.10;;;;;;5022565;28;82744;-60
2024/02/26 13:21:51;;;;;;;;;;;9.90;91.40;;;;;;5017311;28;81945;-60
2024/02/26 13:24:19;;;;;;;;;;;9.90;91.40;;;;;;5018157;28;82009;-60
2024/02/26 13:26:45;;;;;;;;;;;10.00;91.40;;;;;;5016644;28;82639;-59
2024/02/26 13:29:16;;;;;;;;;;;10.00;91.40;;;;;;5018068;28;81750;-60
2024/02/26 13:31:42;;;;;;;;;;;10.00;91.30;;;;;;5016949;28;82088;-60
2024/02/26 13:34:07;;;;;;;;;;;10.00;91.40;;;;;;5016397;28;82250;-60
2024/02/26 13:36:33;;;;;;;;;;;10.00;91.50;;;;;;5021422;28;84219;-60
2024/02/26 13:38:59;;;;;;;;;;;10.00;91.40;;;;;;5018371;28;82713;-60
2024/02/26 13:41:26;;;;;;;;;;;10.00;91.40;;;;;;5021252;28;82336;-60
2024/02/26 13:43:51;;;;;;;;;;;10.00;91.50;;;;;;5015343;28;82492;-58
2024/02/26 13:46:17;;;;;;;;;;;10.00;91.50;;;;;;5016748;28;82537;-60
2024/02/26 13:48:43;;;;;;;;;;;10.00;91.50;;;;;;5017822;28;81809;-60
2024/02/26 13:51:09;;;;;;;;;;;10.00;91.60;;;;;;5018828;28;84213;-60
2024/02/26 13:53:34;;;;;;;;;;;10.00;91.70;;;;;;5015910;28;81633;-60
2024/02/26 13:56:01;;;;;;;;;;;10.10;91.60;;;;;;5017756;28;81891;-60
2024/02/26 13:58:27;;;;;;;;;;;10.10;91.70;;;;;;5015289;28;82002;-60
2024/02/26 14:00:55;;;;;;;;;;;10.10;91.60;;;;;;5018415;28;83330;-60
2024/02/26 14:03:21;;;;;;;;;;;10.10;91.80;;;;;;5015934;28;82015;-60
2024/02/26 14:05:46;;;;;;;;;;;10.10;91.80;;;;;;5016586;28;85202;-58
2024/02/26 14:08:12;;;;;;;;;;;10.10;91.70;;;;;;5018152;28;82808;-60
2024/02/26 14:10:38;;;;;;;;;;;10.10;91.70;;;;;;5014389;28;82947;-60
2024/02/26 14:13:04;;;;;;;;;;;10.10;91.60;;;;;;5018097;28;82592;-60
2024/02/26 14:15:30;;;;;;;;;;;10.10;91.70;;;;;;5017810;28;81966;-59
2024/02/26 14:17:56;;;;;;;;;;;10.10;91.70;;;;;;5019751;28;81892;-60
2024/02/26 14:20:22;;;;;;;;;;;10.10;91.60;;;;;;5015688;28;81880;-59